createdAt,value
2023-04-22T00:02:27.742Z,4.00
2023-04-22T00:04:57.578Z,3.72
2023-04-22T00:07:26.048Z,4.00
2023-04-22T00:09:54.456Z,4.32
2023-04-22T00:12:22.754Z,4.13
2023-04-22T00:14:51.036Z,4.38
2023-04-22T00:17:19.316Z,4.43
2023-04-22T00:19:47.692Z,4.38
2023-04-22T00:22:15.925Z,4.82
2023-04-22T00:24:44.201Z,4.80
2023-04-22T00:27:12.440Z,5.47
2023-04-22T00:29:40.859Z,5.00
2023-04-22T00:32:09.585Z,5.70
2023-04-22T00:34:37.790Z,5.10
2023-04-22T00:37:06.267Z,5.50
2023-04-22T00:39:35.231Z,5.40
2023-04-22T00:42:03.963Z,4.75
2023-04-22T00:44:32.717Z,5.35
2023-04-22T00:47:01.508Z,5.10
2023-04-22T00:49:29.856Z,5.13
2023-04-22T00:51:58.041Z,5.70
2023-04-22T00:54:26.725Z,5.68
2023-04-22T00:56:55.632Z,5.05
2023-04-22T00:59:25.598Z,5.40
2023-04-22T01:01:55.061Z,5.05
2023-04-22T01:04:24.527Z,5.57
2023-04-22T01:06:56.289Z,5.60
2023-04-22T01:09:24.720Z,5.82
2023-04-22T01:11:53.125Z,6.20
2023-04-22T01:14:22.100Z,5.80
2023-04-22T01:16:53.906Z,5.30
2023-04-22T01:19:23.765Z,5.38
2023-04-22T01:21:53.192Z,5.68
2023-04-22T01:24:21.907Z,5.47
2023-04-22T01:26:50.491Z,6.07
2023-04-22T01:29:19.355Z,5.55
2023-04-22T01:31:48.108Z,5.55
2023-04-22T01:34:16.392Z,6.03
2023-04-22T01:36:45.161Z,5.97
2023-04-22T01:39:13.403Z,5.72
2023-04-22T01:41:42.181Z,5.30
2023-04-22T01:44:11.118Z,5.57
2023-04-22T01:46:39.549Z,5.82
2023-04-22T01:49:08.115Z,6.25
2023-04-22T01:51:36.411Z,5.43
2023-04-22T01:54:05.752Z,5.63
2023-04-22T01:56:34.269Z,6.65
2023-04-22T01:59:02.587Z,7.50
2023-04-22T02:01:34.438Z,6.38
2023-04-22T02:04:02.859Z,6.72
2023-04-22T02:06:32.226Z,7.45
2023-04-22T02:09:00.566Z,7.63
2023-04-22T02:11:28.943Z,6.43
2023-04-22T02:13:58.049Z,8.52
2023-04-22T02:16:26.683Z,8.00
2023-04-22T02:18:54.957Z,8.00
2023-04-22T02:21:23.186Z,8.02
2023-04-22T02:23:51.518Z,7.43
2023-04-22T02:26:19.712Z,7.90
2023-04-22T02:28:48.524Z,7.68
2023-04-22T02:31:16.997Z,7.65
2023-04-22T02:33:45.312Z,6.57
2023-04-22T02:36:13.595Z,7.57
2023-04-22T02:38:41.824Z,7.82
2023-04-22T02:41:10.658Z,7.40
2023-04-22T02:43:38.933Z,6.47
2023-04-22T02:46:07.307Z,7.25
2023-04-22T02:48:36.377Z,6.95
2023-04-22T02:51:06.422Z,7.75
2023-04-22T02:53:35.032Z,6.85
2023-04-22T02:56:03.995Z,6.75
2023-04-22T02:58:32.251Z,6.70
2023-04-22T03:01:00.730Z,6.88
2023-04-22T03:03:29.097Z,7.25
2023-04-22T03:05:57.713Z,7.38
2023-04-22T03:08:26.464Z,6.47
2023-04-22T03:10:54.704Z,7.22
2023-04-22T03:13:24.126Z,7.07
2023-04-22T03:15:53.045Z,6.88
2023-04-22T03:18:21.747Z,7.57
2023-04-22T03:20:50.613Z,8.23
2023-04-22T03:23:19.778Z,8.80
2023-04-22T03:25:48.078Z,7.68
2023-04-22T03:28:16.328Z,7.78
2023-04-22T03:30:44.692Z,8.32
2023-04-22T03:33:12.991Z,7.75
2023-04-22T03:35:49.595Z,7.57
2023-04-22T03:38:18.191Z,7.68
2023-04-22T03:40:46.515Z,7.38
2023-04-22T03:43:47.081Z,7.38
2023-04-22T03:46:16.180Z,7.40
2023-04-22T03:48:56.357Z,7.40
2023-04-22T03:51:29.128Z,7.27
2023-04-22T03:53:58.984Z,6.53
2023-04-22T03:56:30.017Z,6.97
2023-04-22T03:59:01.438Z,6.45
2023-04-22T04:01:29.805Z,7.03
2023-04-22T04:04:02.689Z,8.07
2023-04-22T04:06:39.976Z,7.55
2023-04-22T04:09:08.297Z,7.18
2023-04-22T04:11:36.509Z,7.22
2023-04-22T04:14:05.629Z,7.05
2023-04-22T04:16:42.359Z,6.75
2023-04-22T04:19:16.413Z,6.78
2023-04-22T04:21:45.485Z,7.25
2023-04-22T04:24:13.819Z,7.53
2023-04-22T04:26:47.383Z,6.85
2023-04-22T04:29:21.615Z,7.60
2023-04-22T04:32:01.930Z,7.40
2023-04-22T04:34:30.604Z,6.07
2023-04-22T04:36:59.650Z,7.47
2023-04-22T04:39:36.482Z,7.10
2023-04-22T04:42:05.628Z,6.72
2023-04-22T04:44:41.787Z,7.10
2023-04-22T04:47:10.438Z,8.35
2023-04-22T04:49:40.139Z,7.20
2023-04-22T04:52:11.687Z,7.25
2023-04-22T04:54:41.169Z,6.95
2023-04-22T04:57:10.256Z,7.43
2023-04-22T04:59:40.334Z,7.57
2023-04-22T05:02:09.367Z,7.03
2023-04-22T05:04:38.077Z,8.30
2023-04-22T05:07:06.821Z,7.30
2023-04-22T05:09:38.142Z,7.38
2023-04-22T05:12:07.811Z,7.38
2023-04-22T05:14:37.179Z,7.53
2023-04-22T05:17:05.693Z,7.53
2023-04-22T05:19:34.283Z,7.03
2023-04-22T05:22:03.575Z,7.25
2023-04-22T05:24:32.063Z,7.10
2023-04-22T05:27:01.952Z,7.82
2023-04-22T05:29:31.705Z,6.88
2023-04-22T05:32:02.264Z,7.85
2023-04-22T05:34:31.741Z,7.68
2023-04-22T05:37:00.502Z,7.10
2023-04-22T05:39:28.902Z,7.20
2023-04-22T05:41:58.713Z,7.03
2023-04-22T05:44:27.307Z,7.13
2023-04-22T05:46:55.556Z,7.88
2023-04-22T05:49:25.664Z,7.35
2023-04-22T05:52:14.156Z,7.63
2023-04-22T05:54:53.737Z,7.00
2023-04-22T05:57:22.072Z,7.68
2023-04-22T05:59:50.889Z,9.55
2023-04-22T06:02:19.503Z,8.63
2023-04-22T06:04:48.119Z,9.30
2023-04-22T06:07:17.345Z,9.05
2023-04-22T06:09:45.692Z,9.30
2023-04-22T06:12:16.278Z,10.10
2023-04-22T06:14:44.502Z,9.95
2023-04-22T06:17:12.846Z,9.75
2023-04-22T06:19:41.325Z,9.30
2023-04-22T06:22:09.896Z,10.05
2023-04-22T06:24:38.175Z,10.60
2023-04-22T06:27:06.392Z,8.20
2023-04-22T06:29:34.720Z,8.50
2023-04-22T06:32:03.640Z,8.45
2023-04-22T06:34:32.497Z,8.85
2023-04-22T06:37:00.743Z,8.98
2023-04-22T06:39:29.048Z,8.20
2023-04-22T06:42:29.533Z,7.93
2023-04-22T06:45:16.076Z,8.48
2023-04-22T06:48:06.924Z,7.70
2023-04-22T06:50:48.536Z,9.20
2023-04-22T06:53:17.071Z,9.75
2023-04-22T06:55:45.489Z,9.65
2023-04-22T06:58:13.802Z,9.15
2023-04-22T07:00:42.227Z,8.27
2023-04-22T07:03:10.747Z,9.18
2023-04-22T07:05:39.868Z,8.55
2023-04-22T07:08:09.846Z,8.90
2023-04-22T07:10:38.110Z,9.88
2023-04-22T07:13:27.247Z,9.38
2023-04-22T07:15:55.642Z,10.48
2023-04-22T07:18:23.833Z,10.70
2023-04-22T07:20:52.074Z,11.13
2023-04-22T07:23:20.316Z,12.50
2023-04-22T07:25:48.520Z,10.82
2023-04-22T07:28:16.840Z,12.73
2023-04-22T07:30:46.132Z,12.23
2023-04-22T07:33:14.480Z,12.90
2023-04-22T07:35:42.771Z,12.30
2023-04-22T07:38:12.759Z,11.32
2023-04-22T07:40:42.309Z,12.43
2023-04-22T07:43:10.577Z,11.98
2023-04-22T07:45:38.977Z,11.55
2023-04-22T07:48:07.232Z,11.43
2023-04-22T07:50:38.170Z,10.48
2023-04-22T07:53:07.042Z,11.15
2023-04-22T07:55:35.409Z,10.48
2023-04-22T07:58:06.628Z,11.00
2023-04-22T08:00:35.891Z,10.57
2023-04-22T08:03:05.025Z,11.63
2023-04-22T08:05:33.484Z,10.98
2023-04-22T08:08:01.731Z,10.85
2023-04-22T08:10:29.907Z,10.00
2023-04-22T08:12:59.442Z,10.98
2023-04-22T08:15:29.260Z,10.57
2023-04-22T08:17:57.685Z,9.75
2023-04-22T08:20:26.056Z,11.00
2023-04-22T08:22:58.262Z,9.75
2023-04-22T08:25:27.371Z,9.77
2023-04-22T08:27:55.668Z,11.50
2023-04-22T08:30:23.910Z,10.48
2023-04-22T08:32:53.513Z,10.38
2023-04-22T08:35:21.816Z,10.00
2023-04-22T08:37:50.109Z,11.30
2023-04-22T08:40:18.377Z,11.65
2023-04-22T08:42:46.967Z,11.43
2023-04-22T08:45:16.115Z,10.93
2023-04-22T08:47:44.953Z,9.25
2023-04-22T08:50:13.858Z,9.63
2023-04-22T08:52:45.269Z,9.38
2023-04-22T08:55:13.566Z,8.40
2023-04-22T08:57:42.075Z,8.27
2023-04-22T09:00:10.879Z,7.63
2023-04-22T09:02:42.097Z,7.38
2023-04-22T09:05:12.149Z,7.63
2023-04-22T09:07:41.216Z,9.02
2023-04-22T09:10:11.888Z,7.85
2023-04-22T09:12:41.747Z,7.80
2023-04-22T09:15:10.634Z,8.63
2023-04-22T09:17:39.298Z,7.53
2023-04-22T09:20:09.754Z,7.78
2023-04-22T09:22:41.164Z,7.72
2023-04-22T09:25:29.863Z,7.55
2023-04-22T09:27:59.433Z,7.35
2023-04-22T09:30:37.668Z,8.02
2023-04-22T09:33:07.993Z,8.18
2023-04-22T09:35:38.215Z,7.55
2023-04-22T09:38:08.372Z,6.18
2023-04-22T09:40:38.060Z,7.15
2023-04-22T09:43:08.413Z,6.82
2023-04-22T09:45:42.035Z,7.43
2023-04-22T09:48:13.325Z,6.07
2023-04-22T09:50:45.510Z,5.20
2023-04-22T09:53:16.395Z,5.72
2023-04-22T09:55:49.671Z,6.20
2023-04-22T10:00:52.905Z,6.47
2023-04-22T10:03:21.635Z,6.53
2023-04-22T10:05:49.994Z,7.80
2023-04-22T10:08:18.622Z,6.85
2023-04-22T10:10:46.905Z,6.85
2023-04-22T10:13:15.254Z,5.35
2023-04-22T10:15:52.824Z,7.22
2023-04-22T10:18:26.084Z,6.80
2023-04-22T10:23:25.425Z,7.38
2023-04-22T10:25:57.140Z,7.78
2023-04-22T10:28:29.459Z,6.95
2023-04-22T10:30:57.691Z,7.90
2023-04-22T10:33:28.980Z,8.05
2023-04-22T10:36:17.734Z,7.50
2023-04-22T10:38:54.677Z,7.35
2023-04-22T10:41:29.713Z,7.93
2023-04-22T10:44:00.417Z,8.15
2023-04-22T10:46:35.166Z,7.50
2023-04-22T10:49:21.284Z,8.20
2023-04-22T10:51:58.533Z,7.68
2023-04-22T10:54:29.601Z,8.93
2023-04-22T10:57:04.120Z,8.52
2023-04-22T10:59:35.057Z,9.07
2023-04-22T11:02:06.702Z,7.40
2023-04-22T11:04:36.045Z,7.80
2023-04-22T11:07:30.200Z,7.50
2023-04-22T11:10:07.775Z,7.85
2023-04-22T11:12:36.192Z,7.70
2023-04-22T11:15:10.467Z,8.40
2023-04-22T11:17:42.056Z,7.50
2023-04-22T11:20:12.793Z,7.60
2023-04-22T11:22:44.921Z,7.35
2023-04-22T11:25:14.586Z,7.07
2023-04-22T11:27:43.753Z,9.45
2023-04-22T11:30:15.147Z,7.78
2023-04-22T11:32:46.527Z,8.32
2023-04-22T11:35:18.383Z,7.10
2023-04-22T11:37:58.998Z,7.25
2023-04-22T11:40:44.724Z,6.88
2023-04-22T11:43:14.708Z,8.05
2023-04-22T11:45:43.079Z,8.10
2023-04-22T11:48:12.570Z,8.40
2023-04-22T11:50:44.137Z,6.05
2023-04-22T11:53:19.281Z,6.35
2023-04-22T11:55:51.230Z,7.63
2023-04-22T11:58:25.033Z,8.05
2023-04-22T12:00:54.903Z,6.13
2023-04-22T12:03:26.932Z,7.30
2023-04-22T12:06:01.187Z,6.30
2023-04-22T12:08:34.252Z,6.03
2023-04-22T12:11:05.174Z,6.78
2023-04-22T12:13:37.952Z,6.38
2023-04-22T12:16:12.356Z,6.15
2023-04-22T12:18:52.095Z,5.57
2023-04-22T12:21:23.688Z,5.10
2023-04-22T12:23:54.734Z,5.10
2023-04-22T12:26:26.845Z,5.88
2023-04-22T12:28:58.013Z,4.70
2023-04-22T12:31:27.007Z,5.45
2023-04-22T12:33:56.291Z,5.78
2023-04-22T12:36:25.308Z,4.50
2023-04-22T12:38:53.662Z,5.55
2023-04-22T12:41:23.685Z,5.88
2023-04-22T12:43:52.781Z,4.72
2023-04-22T12:46:21.333Z,5.30
2023-04-22T12:48:49.693Z,5.80
2023-04-22T12:51:17.904Z,6.93
2023-04-22T12:53:46.182Z,6.07
2023-04-22T12:56:14.487Z,7.88
2023-04-22T12:58:42.758Z,8.80
2023-04-22T13:01:10.988Z,8.73
2023-04-22T13:03:40.434Z,11.15
2023-04-22T13:06:08.786Z,10.43
2023-04-22T13:08:36.979Z,10.27
2023-04-22T13:11:05.304Z,10.52
2023-04-22T13:13:33.690Z,9.35
2023-04-22T13:16:02.282Z,11.45
2023-04-22T13:18:30.689Z,11.55
2023-04-22T13:21:00.272Z,11.85
2023-04-22T13:23:28.617Z,11.73
2023-04-22T13:25:57.210Z,11.52
2023-04-22T13:28:25.910Z,10.95
2023-04-22T13:30:55.427Z,11.40
2023-04-22T13:33:23.646Z,10.07
2023-04-22T13:35:51.869Z,11.90
2023-04-22T13:38:20.147Z,12.82
2023-04-22T13:40:48.403Z,12.73
2023-04-22T13:43:16.715Z,13.75
2023-04-22T13:45:45.518Z,12.02
2023-04-22T13:48:14.382Z,11.80
2023-04-22T13:50:43.136Z,10.43
2023-04-22T13:53:12.621Z,10.23
2023-04-22T13:55:42.188Z,11.02
2023-04-22T13:58:10.921Z,10.60
2023-04-22T14:00:39.203Z,10.32
2023-04-22T14:03:07.507Z,12.70
2023-04-22T14:05:35.887Z,12.20
2023-04-22T14:08:04.187Z,10.65
2023-04-22T14:10:32.396Z,13.15
2023-04-22T14:13:00.870Z,13.23
2023-04-22T14:15:29.154Z,11.98
2023-04-22T14:17:57.380Z,13.15
2023-04-22T14:20:25.774Z,13.18
2023-04-22T14:22:54.229Z,15.10
2023-04-22T14:25:22.604Z,12.93
2023-04-22T14:27:50.878Z,13.02
2023-04-22T14:30:21.787Z,14.95
2023-04-22T14:32:50.730Z,12.90
2023-04-22T14:35:19.291Z,11.55
2023-04-22T14:37:47.772Z,12.70
2023-04-22T14:40:20.132Z,10.50
2023-04-22T14:42:48.545Z,12.55
2023-04-22T14:45:16.811Z,14.02
2023-04-22T14:47:45.124Z,12.25
2023-04-22T14:50:13.381Z,12.70
2023-04-22T14:52:42.034Z,13.00
2023-04-22T14:55:21.954Z,11.98
2023-04-22T14:57:53.386Z,13.52
2023-04-22T15:00:21.858Z,12.13
2023-04-22T15:02:50.865Z,9.65
2023-04-22T15:05:19.372Z,11.50
2023-04-22T15:07:47.673Z,11.35
2023-04-22T15:10:16.915Z,9.63
2023-04-22T15:12:45.630Z,11.90
2023-04-22T15:15:16.093Z,13.95
2023-04-22T15:17:45.207Z,14.18
2023-04-22T15:20:14.474Z,11.30
2023-04-22T15:22:43.984Z,12.95
2023-04-22T15:25:12.675Z,13.85
2023-04-22T15:27:41.339Z,13.55
2023-04-22T15:30:11.203Z,12.20
2023-04-22T15:32:42.470Z,15.20
2023-04-22T15:35:11.118Z,13.68
2023-04-22T15:37:40.216Z,12.13
2023-04-22T15:40:10.097Z,13.20
2023-04-22T15:42:38.381Z,13.75
2023-04-22T15:45:07.493Z,12.98
2023-04-22T15:47:36.562Z,12.02
2023-04-22T15:50:09.472Z,15.00
2023-04-22T15:52:38.756Z,12.52
2023-04-22T15:55:08.328Z,14.77
2023-04-22T15:57:36.957Z,14.00
2023-04-22T16:00:13.120Z,13.30
2023-04-22T16:02:44.595Z,12.02
2023-04-22T16:05:14.568Z,14.30
2023-04-22T16:07:43.148Z,12.50
2023-04-22T16:10:12.134Z,13.70
2023-04-22T16:12:41.557Z,12.70
2023-04-22T16:15:11.098Z,12.77
2023-04-22T16:17:39.536Z,12.68
2023-04-22T16:20:08.699Z,11.32
2023-04-22T16:22:37.283Z,10.07
2023-04-22T16:25:06.279Z,11.93
2023-04-22T16:27:34.665Z,10.25
2023-04-22T16:30:03.044Z,10.38
2023-04-22T16:32:32.114Z,10.25
2023-04-22T16:35:00.376Z,10.70
2023-04-22T16:37:28.706Z,8.45
2023-04-22T16:39:56.924Z,9.07
2023-04-22T16:42:25.328Z,10.32
2023-04-22T16:44:53.728Z,10.85
2023-04-22T16:47:21.916Z,10.57
2023-04-22T16:49:50.167Z,9.30
2023-04-22T16:52:18.666Z,10.43
2023-04-22T16:54:46.863Z,8.50
2023-04-22T16:57:15.109Z,8.00
2023-04-22T16:59:43.345Z,7.40
2023-04-22T17:02:11.642Z,9.60
2023-04-22T17:04:39.970Z,8.73
2023-04-22T17:07:08.150Z,8.23
2023-04-22T17:09:36.387Z,8.02
2023-04-22T17:12:04.753Z,8.15
2023-04-22T17:14:33.047Z,8.18
2023-04-22T17:17:01.271Z,7.68
2023-04-22T17:19:29.389Z,7.72
2023-04-22T17:21:57.657Z,8.50
2023-04-22T17:24:27.381Z,8.30
2023-04-22T17:26:55.693Z,8.30
2023-04-22T17:29:23.994Z,7.97
2023-04-22T17:31:52.395Z,8.40
2023-04-22T17:34:21.107Z,8.15
2023-04-22T17:36:49.344Z,8.13
2023-04-22T17:39:17.488Z,7.97
2023-04-22T17:41:45.973Z,8.10
2023-04-22T17:44:14.223Z,7.80
2023-04-22T17:46:42.488Z,8.52
2023-04-22T17:49:10.759Z,10.02
2023-04-22T17:51:39.046Z,11.38
2023-04-22T17:54:07.386Z,11.57
2023-04-22T17:56:35.751Z,10.23
2023-04-22T17:59:03.990Z,11.13
2023-04-22T18:01:32.386Z,13.32
2023-04-22T18:04:00.974Z,11.43
2023-04-22T18:06:29.482Z,11.82
2023-04-22T18:08:57.761Z,11.70
2023-04-22T18:11:27.942Z,12.15
2023-04-22T18:13:56.348Z,13.43
2023-04-22T18:16:24.626Z,13.75
2023-04-22T18:18:52.873Z,11.13
2023-04-22T18:21:21.224Z,10.70
2023-04-22T18:23:49.502Z,9.45
2023-04-22T18:26:17.809Z,9.35
2023-04-22T18:28:46.154Z,9.35
2023-04-22T18:31:14.439Z,11.23
2023-04-22T18:33:42.833Z,13.23
2023-04-22T18:36:11.218Z,11.60
2023-04-22T18:38:40.341Z,11.95
2023-04-22T18:41:13.556Z,10.70
2023-04-22T18:43:41.897Z,9.00
2023-04-22T18:46:10.169Z,17.38
2023-04-22T18:48:38.395Z,17.30
2023-04-22T18:51:06.688Z,12.65
2023-04-22T18:53:35.025Z,10.40
2023-04-22T18:56:03.311Z,9.68
2023-04-22T18:58:31.628Z,10.55
2023-04-22T19:01:00.004Z,9.43
2023-04-22T19:03:28.527Z,10.35
2023-04-22T19:05:56.883Z,19.10
2023-04-22T19:08:25.068Z,14.13
2023-04-22T19:10:54.000Z,12.95
2023-04-22T19:13:29.259Z,13.85
2023-04-22T19:15:58.688Z,13.70
2023-04-22T19:18:27.061Z,13.02
2023-04-22T19:20:55.460Z,13.88
2023-04-22T19:23:23.737Z,11.73
2023-04-22T19:25:52.061Z,11.60
2023-04-22T19:28:20.229Z,10.57
2023-04-22T19:30:48.409Z,11.57
2023-04-22T19:33:16.697Z,9.40
2023-04-22T19:35:44.924Z,10.32
2023-04-22T19:38:16.353Z,10.60
2023-04-22T19:40:44.835Z,10.07
2023-04-22T19:43:13.122Z,10.25
2023-04-22T19:45:41.299Z,10.32
2023-04-22T19:48:09.865Z,12.30
2023-04-22T19:50:39.100Z,12.80
2023-04-22T19:53:07.813Z,12.90
2023-04-22T19:55:36.720Z,11.18
2023-04-22T19:58:05.688Z,12.50
2023-04-22T20:00:35.243Z,11.63
2023-04-22T20:03:04.396Z,11.45
2023-04-22T20:05:33.126Z,11.18
2023-04-22T20:08:02.005Z,10.98
2023-04-22T20:10:31.343Z,11.20
2023-04-22T20:13:00.025Z,11.93
2023-04-22T20:15:28.387Z,11.80
2023-04-22T20:17:56.813Z,10.95
2023-04-22T20:20:25.208Z,10.93
2023-04-22T20:22:56.762Z,11.57
2023-04-22T20:25:25.232Z,12.20
2023-04-22T20:27:54.684Z,11.55
2023-04-22T20:30:23.153Z,12.13
2023-04-22T20:35:44.188Z,11.35
2023-04-22T20:38:13.461Z,11.98
2023-04-22T20:40:44.008Z,12.48
2023-04-22T20:43:13.031Z,12.45
2023-04-22T20:45:41.549Z,12.40
2023-04-22T20:48:09.906Z,14.55
2023-04-22T20:50:38.251Z,12.93
2023-04-22T20:53:06.941Z,14.10
2023-04-22T20:55:37.198Z,14.35
2023-04-22T20:58:05.751Z,14.90
2023-04-22T21:00:34.837Z,15.15
2023-04-22T21:03:07.282Z,14.98
2023-04-22T21:05:41.124Z,13.63
2023-04-22T21:08:30.087Z,15.48
2023-04-22T21:10:58.690Z,15.02
2023-04-22T21:13:28.847Z,15.60
2023-04-22T21:16:04.587Z,15.65
2023-04-22T21:18:34.237Z,15.75
2023-04-22T21:21:06.909Z,16.15
2023-04-22T21:23:36.063Z,16.13
2023-04-22T21:26:05.026Z,15.23
2023-04-22T21:28:33.495Z,14.73
2023-04-22T21:31:02.038Z,14.77
2023-04-22T21:33:32.860Z,15.05
2023-04-22T21:36:01.311Z,14.88
2023-04-22T21:38:30.276Z,15.90
2023-04-22T21:40:58.482Z,16.13
2023-04-22T21:43:26.722Z,14.75
2023-04-22T21:45:54.981Z,15.65
2023-04-22T21:48:23.188Z,14.48
2023-04-22T21:50:51.744Z,14.95
2023-04-22T21:53:20.732Z,16.15
2023-04-22T21:55:49.020Z,15.43
2023-04-22T21:58:17.229Z,16.67
2023-04-22T22:00:45.448Z,15.68
2023-04-22T22:03:13.886Z,16.35
2023-04-22T22:05:42.369Z,15.95
2023-04-22T22:08:10.749Z,16.17
2023-04-22T22:10:38.961Z,17.38
2023-04-22T22:13:07.989Z,16.52
2023-04-22T22:15:36.949Z,17.30
2023-04-22T22:18:06.721Z,15.63
2023-04-22T22:20:36.642Z,16.25
2023-04-22T22:23:05.188Z,16.92
2023-04-22T22:25:33.409Z,16.60
2023-04-22T22:28:01.626Z,17.55
2023-04-22T22:30:30.084Z,15.90
2023-04-22T22:32:58.294Z,17.80
2023-04-22T22:35:26.776Z,16.65
2023-04-22T22:37:55.069Z,17.02
2023-04-22T22:40:23.326Z,16.67
2023-04-22T22:42:51.605Z,17.30
2023-04-22T22:45:19.936Z,16.35
2023-04-22T22:47:48.199Z,17.35
2023-04-22T22:50:16.507Z,18.33
2023-04-22T22:52:44.790Z,18.08
2023-04-22T22:55:13.816Z,17.90
2023-04-22T22:57:42.100Z,16.42
2023-04-22T23:00:11.965Z,17.85
2023-04-22T23:02:40.721Z,17.15
2023-04-22T23:05:10.859Z,18.05
2023-04-22T23:07:39.309Z,17.80
2023-04-22T23:10:08.499Z,19.58
2023-04-22T23:12:36.845Z,18.67
2023-04-22T23:15:05.876Z,18.10
2023-04-22T23:17:35.002Z,18.63
2023-04-22T23:20:04.376Z,17.92
2023-04-22T23:22:33.822Z,17.42
2023-04-22T23:25:02.343Z,18.05
2023-04-22T23:27:31.451Z,19.98
2023-04-22T23:29:59.992Z,20.17
2023-04-22T23:32:29.333Z,20.15
2023-04-22T23:34:59.977Z,18.23
2023-04-22T23:37:29.729Z,17.80
2023-04-22T23:39:58.139Z,17.90
2023-04-22T23:42:26.424Z,18.42
2023-04-22T23:44:54.757Z,19.13
2023-04-22T23:47:23.007Z,19.25
2023-04-22T23:49:51.704Z,20.20
2023-04-22T23:52:20.413Z,19.77
2023-04-22T23:54:49.861Z,17.98
2023-04-22T23:57:18.472Z,19.10
2023-04-22T23:59:47.119Z,19.05
